Time;durP1;ratioP1;P1;durP2;ratioP2;P2;SDS_P1;SDS_P2;PMS_P1;PMS_P2;Temp;Humidity;BMP_temperature;BMP_pressure;BME280_temperature;BME280_humidity;BME280_pressure;Samples;Min_cycle;Max_cycle;Signal;HPM_P1;HPM_P2
2021/08/01 00:00:41;;;;;;;8.91;6.35;;;;;;;;;;343552;154;864998;-64
2021/08/01 00:01:42;;;;;;;13.31;7.19;;;;;;;;;;341716;154;857210;-64
2021/08/01 00:02:44;;;;;;;11.14;7.20;;;;;;;;;;342110;155;865338;-64
2021/08/01 00:03:45;;;;;;;9.68;6.96;;;;;;;;;;342301;156;857369;-64
2021/08/01 00:04:47;;;;;;;10.58;7.29;;;;;;;;;;343633;154;857520;-64
2021/08/01 00:05:48;;;;;;;11.19;7.23;;;;;;;;;;342004;156;858904;-64
2021/08/01 00:06:50;;;;;;;11.24;6.79;;;;;;;;;;343852;156;860304;-64
2021/08/01 00:07:52;;;;;;;11.64;7.15;;;;;;;;;;343774;154;858561;-64
2021/08/01 00:08:54;;;;;;;11.89;7.11;;;;;;;;;;342359;155;857427;-64
2021/08/01 00:09:58;;;;;;;10.86;7.06;;;;;;;;;;341772;154;857481;-64
2021/08/01 00:11:01;;;;;;;13.01;7.47;;;;;;;;;;343492;156;858281;-65
2021/08/01 00:12:03;;;;;;;11.71;6.99;;;;;;;;;;343661;155;857797;-64
2021/08/01 00:13:04;;;;;;;9.29;6.59;;;;;;;;;;342613;154;858148;-64
2021/08/01 00:14:06;;;;;;;13.49;7.36;;;;;;;;;;341639;156;867065;-64
2021/08/01 00:15:07;;;;;;;11.43;7.14;;;;;;;;;;342976;156;859068;-64
2021/08/01 00:16:10;;;;;;;11.63;7.14;;;;;;;;;;341877;154;858052;-63
2021/08/01 00:17:11;;;;;;;12.04;6.91;;;;;;;;;;342291;157;859143;-63
2021/08/01 00:18:13;;;;;;;10.30;5.88;;;;;;;;;;342337;157;857282;-63
2021/08/01 00:19:15;;;;;;;13.45;6.81;;;;;;;;;;343071;155;857276;-63
2021/08/01 00:20:16;;;;;;;14.13;6.57;;;;;;;;;;340750;155;857344;-64
2021/08/01 00:21:18;;;;;;;11.59;6.67;;;;;;;;;;340745;158;857310;-63
2021/08/01 00:22:20;;;;;;;11.52;7.00;;;;;;;;;;342364;155;858319;-64
2021/08/01 00:23:22;;;;;;;9.83;6.83;;;;;;;;;;341637;155;857783;-63
2021/08/01 00:24:23;;;;;;;10.61;6.63;;;;;;;;;;340982;156;866424;-63
2021/08/01 00:25:25;;;;;;;10.30;6.91;;;;;;;;;;342565;155;858875;-63
2021/08/01 00:26:26;;;;;;;10.99;6.62;;;;;;;;;;342758;155;860701;-64
2021/08/01 00:27:33;;;;;;;18.58;7.01;;;;;;;;;;343288;156;865053;-63
2021/08/01 00:28:31;;;;;;;9.26;7.11;;;;;;;;;;342970;154;857409;-63
2021/08/01 00:29:33;;;;;;;15.21;6.44;;;;;;;;;;343891;155;859080;-64
2021/08/01 00:30:36;;;;;;;12.91;7.30;;;;;;;;;;341782;155;857364;-63
2021/08/01 00:31:38;;;;;;;9.72;6.79;;;;;;;;;;341947;156;858596;-64
2021/08/01 00:32:39;;;;;;;12.16;6.90;;;;;;;;;;341891;154;857257;-64
2021/08/01 00:33:41;;;;;;;11.82;7.19;;;;;;;;;;342183;155;857300;-64
2021/08/01 00:34:42;;;;;;;9.62;7.09;;;;;;;;;;343118;156;864905;-63
2021/08/01 00:35:44;;;;;;;10.05;7.24;;;;;;;;;;344049;155;857836;-64
2021/08/01 00:36:47;;;;;;;14.58;6.70;;;;;;;;;;342760;154;859073;-63
2021/08/01 00:37:49;;;;;;;13.14;6.83;;;;;;;;;;340670;158;857261;-63
2021/08/01 00:38:50;;;;;;;9.24;6.34;;;;;;;;;;341027;156;865767;-64
2021/08/01 00:39:52;;;;;;;15.40;7.24;;;;;;;;;;342819;154;857999;-64
2021/08/01 00:40:54;;;;;;;13.97;8.32;;;;;;;;;;341354;155;857408;-64
2021/08/01 00:41:56;;;;;;;11.06;7.06;;;;;;;;;;344201;156;857365;-64
2021/08/01 00:42:57;;;;;;;10.77;7.08;;;;;;;;;;342281;155;857416;-63
2021/08/01 00:43:59;;;;;;;15.90;7.39;;;;;;;;;;343702;153;857202;-63
2021/08/01 00:45:01;;;;;;;13.26;7.44;;;;;;;;;;349098;151;857277;-64
2021/08/01 00:46:02;;;;;;;8.66;6.83;;;;;;;;;;349035;151;857322;-64
2021/08/01 00:47:04;;;;;;;12.92;7.71;;;;;;;;;;342689;154;860858;-64
2021/08/01 00:48:10;;;;;;;13.64;6.14;;;;;;;;;;342334;154;859126;-64
2021/08/01 00:49:11;;;;;;;13.45;7.31;;;;;;;;;;348510;151;857896;-65
2021/08/01 00:50:15;;;;;;;13.04;7.11;;;;;;;;;;346883;151;857385;-65
2021/08/01 00:51:16;;;;;;;9.69;7.47;;;;;;;;;;347432;151;857568;-65
2021/08/01 00:52:18;;;;;;;13.38;6.92;;;;;;;;;;347803;151;857395;-65
2021/08/01 00:53:19;;;;;;;15.84;7.47;;;;;;;;;;348326;151;857472;-65
2021/08/01 00:54:23;;;;;;;13.49;7.41;;;;;;;;;;348706;151;857290;-65
2021/08/01 00:55:24;;;;;;;12.04;7.38;;;;;;;;;;348637;151;858948;-64
2021/08/01 00:56:29;;;;;;;16.81;7.22;;;;;;;;;;346997;151;857393;-64
2021/08/01 00:57:30;;;;;;;14.23;7.03;;;;;;;;;;348389;151;857373;-64
2021/08/01 00:58:32;;;;;;;14.42;7.59;;;;;;;;;;348016;151;865146;-65
2021/08/01 00:59:34;;;;;;;11.51;7.38;;;;;;;;;;350549;151;857427;-64
2021/08/01 01:01:48;;;;;;;11.91;7.77;;;;;;;;;;348009;151;865825;-64
2021/08/01 01:02:49;;;;;;;13.95;7.30;;;;;;;;;;348561;151;858992;-63
2021/08/01 01:04:11;;;;;;;10.21;7.41;;;;;;;;;;351141;151;859004;-64
2021/08/01 01:05:24;;;;;;;12.25;7.80;;;;;;;;;;349249;151;858051;-64
2021/08/01 01:06:35;;;;;;;10.92;7.36;;;;;;;;;;347121;151;859532;-64
2021/08/01 01:07:39;;;;;;;14.15;7.16;;;;;;;;;;347133;151;856560;-64
2021/08/01 01:08:42;;;;;;;12.29;7.10;;;;;;;;;;347663;151;857232;-63
2021/08/01 01:09:46;;;;;;;10.54;7.39;;;;;;;;;;348394;151;857236;-63
2021/08/01 01:10:47;;;;;;;12.40;7.17;;;;;;;;;;348114;151;859295;-64
2021/08/01 01:11:49;;;;;;;20.89;6.99;;;;;;;;;;348929;151;866681;-64
2021/08/01 01:12:52;;;;;;;21.34;7.41;;;;;;;;;;350036;151;857253;-64
2021/08/01 01:13:55;;;;;;;13.05;7.40;;;;;;;;;;347120;151;857297;-64
2021/08/01 01:14:57;;;;;;;15.08;7.37;;;;;;;;;;349546;151;858445;-64
2021/08/01 01:15:59;;;;;;;11.66;7.24;;;;;;;;;;348963;151;860091;-64
2021/08/01 01:17:01;;;;;;;10.59;7.79;;;;;;;;;;348761;151;858981;-63
2021/08/01 01:18:03;;;;;;;18.39;7.27;;;;;;;;;;347642;152;859860;-63
2021/08/01 01:19:04;;;;;;;17.91;7.98;;;;;;;;;;347540;153;857803;-63
2021/08/01 01:20:16;;;;;;;11.48;7.33;;;;;;;;;;345572;154;857138;-63
2021/08/01 01:21:17;;;;;;;;;;;;;;;;;;348945;153;864205;-64
2021/08/01 01:22:21;;;;;;;14.09;7.21;;;;;;;;;;347666;152;857400;-64
2021/08/01 01:23:27;;;;;;;10.41;7.63;;;;;;;;;;347820;154;859672;-64
2021/08/01 01:24:30;;;;;;;12.23;7.99;;;;;;;;;;347154;153;858760;-64
2021/08/01 01:25:39;;;;;;;14.14;7.31;;;;;;;;;;348712;152;859257;-63
2021/08/01 01:27:00;;;;;;;11.77;7.10;;;;;;;;;;345498;153;858760;-65
2021/08/01 01:28:07;;;;;;;10.88;7.09;;;;;;;;;;345560;154;865208;-63
2021/08/01 01:29:16;;;;;;;14.03;7.92;;;;;;;;;;347809;151;857815;-63
2021/08/01 01:30:20;;;;;;;9.94;7.45;;;;;;;;;;348048;151;857280;-63
2021/08/01 01:31:32;;;;;;;13.51;7.91;;;;;;;;;;347630;152;858368;-63
2021/08/01 01:32:35;;;;;;;15.39;7.59;;;;;;;;;;348836;151;865597;-63
2021/08/01 01:33:36;;;;;;;12.09;7.37;;;;;;;;;;347534;153;859548;-63
2021/08/01 01:34:40;;;;;;;15.41;8.04;;;;;;;;;;348153;151;859092;-63
2021/08/01 01:35:42;;;;;;;11.32;7.46;;;;;;;;;;348305;151;867083;-63
2021/08/01 01:36:45;;;;;;;15.59;7.69;;;;;;;;;;342099;154;857285;-63
2021/08/01 01:37:51;;;;;;;11.63;7.67;;;;;;;;;;339562;154;864964;-63
2021/08/01 01:38:53;;;;;;;12.29;7.84;;;;;;;;;;346824;153;857345;-63
2021/08/01 01:39:55;;;;;;;10.41;7.33;;;;;;;;;;348994;151;857857;-65
2021/08/01 01:40:56;;;;;;;9.95;7.14;;;;;;;;;;342643;154;859133;-64
2021/08/01 01:41:58;;;;;;;14.58;7.37;;;;;;;;;;342238;154;866740;-64
2021/08/01 01:43:00;;;;;;;11.61;7.61;;;;;;;;;;347047;152;859664;-64
2021/08/01 01:44:01;;;;;;;12.94;7.82;;;;;;;;;;347467;151;859281;-64
2021/08/01 01:45:04;;;;;;;19.47;8.10;;;;;;;;;;340135;154;859454;-65
2021/08/01 01:46:06;;;;;;;15.44;7.78;;;;;;;;;;336908;157;857310;-64
2021/08/01 01:47:07;;;;;;;15.51;7.61;;;;;;;;;;343389;154;860361;-64
2021/08/01 01:48:09;;;;;;;14.38;8.34;;;;;;;;;;341421;154;857479;-64
2021/08/01 01:49:10;;;;;;;17.27;8.57;;;;;;;;;;337700;157;857330;-64
2021/08/01 01:50:14;;;;;;;12.39;7.71;;;;;;;;;;344784;154;857245;-64
2021/08/01 01:51:15;;;;;;;15.84;8.98;;;;;;;;;;339159;155;864990;-64
2021/08/01 01:52:17;;;;;;;16.88;8.59;;;;;;;;;;337533;158;857827;-64
2021/08/01 01:53:19;;;;;;;18.36;8.49;;;;;;;;;;338833;156;857378;-64
2021/08/01 01:54:20;;;;;;;11.74;8.16;;;;;;;;;;341628;154;857406;-64
2021/08/01 01:55:23;;;;;;;10.33;7.39;;;;;;;;;;343026;157;858170;-64
2021/08/01 01:56:26;;;;;;;13.66;8.01;;;;;;;;;;340452;154;859459;-65
2021/08/01 01:57:27;;;;;;;17.32;8.90;;;;;;;;;;344328;154;858272;-63
2021/08/01 01:58:29;;;;;;;13.46;7.94;;;;;;;;;;344923;154;865452;-63
2021/08/01 01:59:30;;;;;;;15.00;8.33;;;;;;;;;;342414;154;857890;-63
2021/08/01 02:00:32;;;;;;;14.01;8.54;;;;;;;;;;346270;154;857277;-63
2021/08/01 02:01:36;;;;;;;16.90;8.28;;;;;;;;;;342019;154;864193;-63
2021/08/01 02:02:37;;;;;;;11.42;8.06;;;;;;;;;;341541;154;860868;-63
2021/08/01 02:03:39;;;;;;;12.25;7.88;;;;;;;;;;342582;154;857328;-63
2021/08/01 02:04:40;;;;;;;10.71;7.49;;;;;;;;;;344361;154;864991;-63
2021/08/01 02:05:42;;;;;;;10.80;7.26;;;;;;;;;;344200;154;857717;-63
2021/08/01 02:06:45;;;;;;;12.99;8.41;;;;;;;;;;343223;154;857301;-63
2021/08/01 02:07:46;;;;;;;17.39;7.80;;;;;;;;;;342507;154;857319;-63
2021/08/01 02:08:50;;;;;;;14.35;8.08;;;;;;;;;;343449;154;857414;-64
2021/08/01 02:10:00;;;;;;;10.90;7.37;;;;;;;;;;341370;154;860188;-65
2021/08/01 02:11:01;;;;;;;13.94;7.41;;;;;;;;;;336684;156;858648;-64
2021/08/01 02:12:07;;;;;;;14.46;8.01;;;;;;;;;;336473;156;861271;-64
2021/08/01 02:13:09;;;;;;;13.27;7.75;;;;;;;;;;342232;154;859644;-64
2021/08/01 02:14:18;;;;;;;12.45;7.66;;;;;;;;;;339594;155;858230;-64
2021/08/01 02:15:20;;;;;;;14.43;6.98;;;;;;;;;;338125;157;858563;-64
2021/08/01 02:16:22;;;;;;;11.47;8.01;;;;;;;;;;341055;154;857687;-64
2021/08/01 02:17:26;;;;;;;20.22;8.05;;;;;;;;;;342719;154;859839;-64
2021/08/01 02:18:29;;;;;;;21.04;8.68;;;;;;;;;;343650;154;858304;-63
2021/08/01 02:19:32;;;;;;;13.79;7.62;;;;;;;;;;340424;154;857370;-63
2021/08/01 02:20:41;;;;;;;11.73;7.89;;;;;;;;;;333998;157;859279;-63
2021/08/01 02:21:43;;;;;;;13.48;7.77;;;;;;;;;;343374;154;857203;-65
2021/08/01 02:22:44;;;;;;;12.62;8.40;;;;;;;;;;348287;152;858494;-64
2021/08/01 02:23:46;;;;;;;13.18;7.96;;;;;;;;;;344845;154;858237;-64
2021/08/01 02:24:48;;;;;;;19.53;8.93;;;;;;;;;;343795;154;860116;-65
2021/08/01 02:25:50;;;;;;;13.49;7.92;;;;;;;;;;336580;156;857580;-64
2021/08/01 02:26:52;;;;;;;18.96;8.14;;;;;;;;;;344318;154;859635;-64
2021/08/01 02:27:53;;;;;;;12.81;7.88;;;;;;;;;;343292;154;859932;-63
2021/08/01 02:28:55;;;;;;;16.34;8.71;;;;;;;;;;344019;154;860523;-64
2021/08/01 02:29:56;;;;;;;11.89;7.99;;;;;;;;;;345300;154;858286;-63
2021/08/01 02:30:58;;;;;;;13.50;7.92;;;;;;;;;;342743;154;857274;-63
2021/08/01 02:32:00;;;;;;;19.33;8.85;;;;;;;;;;343702;154;857369;-63
2021/08/01 02:33:02;;;;;;;11.21;7.86;;;;;;;;;;341226;154;857199;-63
2021/08/01 02:34:03;;;;;;;16.29;8.08;;;;;;;;;;342453;154;864902;-63
2021/08/01 02:35:05;;;;;;;10.96;8.39;;;;;;;;;;341414;154;866733;-63
2021/08/01 02:36:08;;;;;;;11.84;7.67;;;;;;;;;;341907;154;857304;-63
2021/08/01 02:37:10;;;;;;;16.14;7.67;;;;;;;;;;346721;154;857771;-63
2021/08/01 02:38:12;;;;;;;10.44;7.44;;;;;;;;;;342781;154;858140;-63
2021/08/01 02:39:13;;;;;;;10.91;7.39;;;;;;;;;;343234;154;859112;-63
2021/08/01 02:40:17;;;;;;;10.44;7.87;;;;;;;;;;340924;155;858680;-63
2021/08/01 02:41:19;;;;;;;13.14;8.09;;;;;;;;;;342772;155;857329;-63
2021/08/01 02:42:22;;;;;;;12.99;7.53;;;;;;;;;;341234;155;858655;-63
2021/08/01 02:43:25;;;;;;;12.24;7.76;;;;;;;;;;339151;155;859603;-63
2021/08/01 02:44:27;;;;;;;16.27;8.29;;;;;;;;;;338827;155;857373;-63
2021/08/01 02:45:29;;;;;;;15.44;7.98;;;;;;;;;;342826;154;866899;-63
2021/08/01 02:46:31;;;;;;;11.71;8.13;;;;;;;;;;343480;155;857375;-63
2021/08/01 02:47:32;;;;;;;12.37;8.22;;;;;;;;;;343782;153;858289;-63
2021/08/01 02:48:34;;;;;;;13.31;7.46;;;;;;;;;;342792;155;856828;-63
2021/08/01 02:49:40;;;;;;;13.10;7.28;;;;;;;;;;344224;154;860383;-63
2021/08/01 02:50:45;;;;;;;12.49;8.03;;;;;;;;;;342099;156;858487;-63
2021/08/01 02:51:47;;;;;;;10.03;7.19;;;;;;;;;;342106;153;858573;-63
2021/08/01 02:52:58;;;;;;;11.08;8.00;;;;;;;;;;343335;154;857437;-63
2021/08/01 02:54:00;;;;;;;12.83;6.63;;;;;;;;;;343353;153;859305;-63
2021/08/01 02:55:02;;;;;;;14.01;7.99;;;;;;;;;;344149;156;858841;-62
2021/08/01 02:56:04;;;;;;;10.53;7.62;;;;;;;;;;348340;151;864924;-64
2021/08/01 02:57:06;;;;;;;10.95;7.93;;;;;;;;;;348796;151;857852;-64
2021/08/01 02:58:08;;;;;;;14.33;8.01;;;;;;;;;;354429;151;858752;-63
2021/08/01 02:59:09;;;;;;;14.23;8.17;;;;;;;;;;349519;151;857264;-62
2021/08/01 03:00:13;;;;;;;12.65;8.41;;;;;;;;;;348094;152;857234;-61
2021/08/01 03:01:14;;;;;;;17.38;8.78;;;;;;;;;;349369;151;857202;-64
2021/08/01 03:02:16;;;;;;;12.06;8.95;;;;;;;;;;348755;151;864854;-64
2021/08/01 03:03:17;;;;;;;13.82;8.89;;;;;;;;;;349044;152;857778;-64
2021/08/01 03:04:19;;;;;;;11.07;8.11;;;;;;;;;;349326;151;857297;-61
2021/08/01 03:05:21;;;;;;;12.14;8.29;;;;;;;;;;349202;151;865173;-61
2021/08/01 03:06:23;;;;;;;11.75;7.90;;;;;;;;;;348532;151;857470;-64
2021/08/01 03:07:24;;;;;;;16.09;8.39;;;;;;;;;;348849;151;857894;-61
2021/08/01 03:08:26;;;;;;;22.19;9.48;;;;;;;;;;349442;151;860477;-62
2021/08/01 03:09:28;;;;;;;21.32;8.62;;;;;;;;;;349496;152;860495;-62
2021/08/01 03:10:30;;;;;;;13.85;8.39;;;;;;;;;;349225;151;858975;-63
2021/08/01 03:11:33;;;;;;;16.31;8.41;;;;;;;;;;348105;151;860737;-62
2021/08/01 03:12:42;;;;;;;13.03;8.26;;;;;;;;;;348897;151;857286;-64
2021/08/01 03:13:43;;;;;;;15.18;8.85;;;;;;;;;;348722;151;857148;-64
2021/08/01 03:14:45;;;;;;;11.75;8.18;;;;;;;;;;350613;151;859867;-63
2021/08/01 03:15:47;;;;;;;13.27;8.50;;;;;;;;;;350021;151;864923;-62
2021/08/01 03:16:51;;;;;;;16.56;8.58;;;;;;;;;;349315;151;859018;-64
2021/08/01 03:17:53;;;;;;;10.79;8.03;;;;;;;;;;348353;151;860302;-62
2021/08/01 03:18:54;;;;;;;13.08;7.91;;;;;;;;;;349028;151;857779;-64
2021/08/01 03:19:56;;;;;;;11.99;8.01;;;;;;;;;;349662;151;865066;-64
2021/08/01 03:20:59;;;;;;;15.64;8.42;;;;;;;;;;349829;151;859026;-64
2021/08/01 03:22:00;;;;;;;12.19;8.04;;;;;;;;;;348518;151;856845;-63
2021/08/01 03:23:02;;;;;;;9.82;6.98;;;;;;;;;;351558;151;857304;-62
2021/08/01 03:24:04;;;;;;;13.56;7.53;;;;;;;;;;349339;151;865915;-66
2021/08/01 03:25:06;;;;;;;11.63;7.31;;;;;;;;;;349460;151;859260;-67
2021/08/01 03:26:09;;;;;;;11.14;7.01;;;;;;;;;;349570;151;857863;-66
2021/08/01 03:27:10;;;;;;;11.52;7.59;;;;;;;;;;349195;152;859541;-68
2021/08/01 03:28:12;;;;;;;12.36;6.92;;;;;;;;;;348589;151;858220;-64
2021/08/01 03:29:13;;;;;;;12.05;6.65;;;;;;;;;;349809;151;857418;-65
2021/08/01 03:30:16;;;;;;;11.95;7.29;;;;;;;;;;349314;151;857197;-64
2021/08/01 03:31:17;;;;;;;9.29;6.94;;;;;;;;;;349152;151;857296;-64
2021/08/01 03:32:19;;;;;;;9.94;6.95;;;;;;;;;;348357;151;857326;-69
2021/08/01 03:33:20;;;;;;;12.29;7.61;;;;;;;;;;351510;151;857277;-67
2021/08/01 03:34:22;;;;;;;9.56;6.99;;;;;;;;;;351119;151;858945;-62
2021/08/01 03:35:24;;;;;;;16.64;7.61;;;;;;;;;;348423;151;859932;-67
2021/08/01 03:36:27;;;;;;;14.28;7.44;;;;;;;;;;349037;151;856641;-66
2021/08/01 03:37:29;;;;;;;9.87;7.21;;;;;;;;;;354313;151;865014;-64
2021/08/01 03:38:30;;;;;;;10.79;7.64;;;;;;;;;;349892;151;858465;-62
2021/08/01 03:39:34;;;;;;;11.12;7.02;;;;;;;;;;349804;151;857598;-64
2021/08/01 03:40:36;;;;;;;10.04;6.94;;;;;;;;;;348027;151;859336;-64
2021/08/01 03:41:38;;;;;;;13.54;7.43;;;;;;;;;;349610;151;857238;-62
2021/08/01 03:42:39;;;;;;;15.45;7.75;;;;;;;;;;343151;154;865090;-61
2021/08/01 03:43:41;;;;;;;9.98;7.18;;;;;;;;;;343109;153;857569;-63
2021/08/01 03:44:43;;;;;;;11.18;7.11;;;;;;;;;;351239;151;858488;-61
2021/08/01 03:45:44;;;;;;;11.06;7.61;;;;;;;;;;347659;151;866158;-61
2021/08/01 03:46:46;;;;;;;17.25;7.91;;;;;;;;;;347582;151;858739;-59
2021/08/01 03:47:48;;;;;;;10.14;7.01;;;;;;;;;;351440;151;860424;-62
2021/08/01 03:48:49;;;;;;;9.95;7.17;;;;;;;;;;349051;151;857840;-60
2021/08/01 03:49:51;;;;;;;11.80;6.75;;;;;;;;;;348229;151;857250;-61
2021/08/01 03:50:54;;;;;;;10.35;7.17;;;;;;;;;;349330;151;857349;-65
2021/08/01 03:51:56;;;;;;;10.85;7.67;;;;;;;;;;349536;151;865091;-61
2021/08/01 03:52:57;;;;;;;14.94;7.69;;;;;;;;;;348995;151;857350;-61
2021/08/01 03:53:59;;;;;;;12.78;7.04;;;;;;;;;;350054;151;866859;-60
2021/08/01 03:55:00;;;;;;;15.76;6.84;;;;;;;;;;349076;151;858243;-63
2021/08/01 03:56:03;;;;;;;17.46;7.49;;;;;;;;;;348416;151;857368;-61
2021/08/01 03:57:04;;;;;;;11.40;7.43;;;;;;;;;;349685;151;865753;-61
2021/08/01 03:58:06;;;;;;;14.35;7.46;;;;;;;;;;348118;151;857754;-65
2021/08/01 03:59:08;;;;;;;10.94;7.29;;;;;;;;;;349005;151;864956;-64
2021/08/01 04:00:10;;;;;;;12.03;7.87;;;;;;;;;;347777;151;857315;-61
2021/08/01 04:01:13;;;;;;;14.08;7.58;;;;;;;;;;346717;151;857204;-61
2021/08/01 04:02:14;;;;;;;11.37;7.73;;;;;;;;;;350113;151;858735;-60
2021/08/01 04:03:16;;;;;;;9.53;7.44;;;;;;;;;;348102;151;857878;-59
2021/08/01 04:04:17;;;;;;;12.90;7.46;;;;;;;;;;347142;151;857346;-60
2021/08/01 04:05:19;;;;;;;9.81;7.09;;;;;;;;;;348748;151;858330;-60
2021/08/01 04:06:21;;;;;;;12.57;7.35;;;;;;;;;;348802;151;857561;-60
2021/08/01 04:07:23;;;;;;;11.34;8.30;;;;;;;;;;348094;151;859913;-59
2021/08/01 04:08:24;;;;;;;13.14;8.28;;;;;;;;;;349403;151;857281;-59
2021/08/01 04:09:26;;;;;;;10.90;7.89;;;;;;;;;;350119;151;857414;-60
2021/08/01 04:10:29;;;;;;;13.21;8.09;;;;;;;;;;349544;151;857332;-60
2021/08/01 04:11:34;;;;;;;14.34;7.87;;;;;;;;;;348965;151;860379;-60
2021/08/01 04:12:37;;;;;;;13.16;7.94;;;;;;;;;;349115;151;856651;-60
2021/08/01 04:13:39;;;;;;;13.67;8.15;;;;;;;;;;348138;151;864892;-60
2021/08/01 04:14:40;;;;;;;15.16;7.81;;;;;;;;;;349202;151;858164;-60
2021/08/01 04:15:46;;;;;;;11.96;7.80;;;;;;;;;;349100;151;857734;-59
2021/08/01 04:16:50;;;;;;;13.82;8.16;;;;;;;;;;349490;151;859573;-60
2021/08/01 04:17:51;;;;;;;11.82;7.59;;;;;;;;;;348269;152;857326;-59
2021/08/01 04:18:53;;;;;;;12.34;7.76;;;;;;;;;;351138;151;858545;-59
2021/08/01 04:19:54;;;;;;;11.61;7.85;;;;;;;;;;349011;151;857345;-59
2021/08/01 04:20:56;;;;;;;13.80;7.98;;;;;;;;;;349635;151;857380;-59
2021/08/01 04:21:58;;;;;;;9.74;8.10;;;;;;;;;;347599;151;864957;-59
2021/08/01 04:22:59;;;;;;;11.03;8.39;;;;;;;;;;349827;151;857329;-59
2021/08/01 04:24:21;;;;;;;9.94;7.89;;;;;;;;;;349534;151;857275;-62
2021/08/01 04:25:22;;;;;;;12.07;7.69;;;;;;;;;;345187;155;858618;-60
2021/08/01 04:26:25;;;;;;;12.77;8.32;;;;;;;;;;346112;153;857739;-62
2021/08/01 04:27:26;;;;;;;10.27;7.60;;;;;;;;;;349619;150;857200;-60
2021/08/01 04:28:28;;;;;;;10.60;8.14;;;;;;;;;;348707;150;857343;-61
2021/08/01 04:29:29;;;;;;;11.05;7.72;;;;;;;;;;348670;150;857347;-63
2021/08/01 04:30:33;;;;;;;13.83;7.99;;;;;;;;;;350229;150;857481;-64
2021/08/01 04:31:34;;;;;;;12.07;9.19;;;;;;;;;;346927;153;857065;-61
2021/08/01 04:32:36;;;;;;;17.13;8.10;;;;;;;;;;346691;153;857426;-64
2021/08/01 04:33:37;;;;;;;13.49;8.23;;;;;;;;;;349168;150;857312;-62
2021/08/01 04:34:39;;;;;;;14.66;8.39;;;;;;;;;;350132;150;858929;-62
2021/08/01 04:35:41;;;;;;;10.31;8.49;;;;;;;;;;349562;152;859136;-63
2021/08/01 04:36:43;;;;;;;11.69;8.49;;;;;;;;;;343479;153;857220;-62
2021/08/01 04:37:45;;;;;;;10.43;8.49;;;;;;;;;;346350;151;857276;-63
2021/08/01 04:38:46;;;;;;;15.14;8.97;;;;;;;;;;346211;152;857247;-63
2021/08/01 04:39:48;;;;;;;13.42;8.44;;;;;;;;;;352781;150;857265;-64
2021/08/01 04:40:51;;;;;;;12.84;8.81;;;;;;;;;;348618;150;857364;-63
2021/08/01 04:41:52;;;;;;;12.80;8.81;;;;;;;;;;347617;150;857378;-63
2021/08/01 04:42:54;;;;;;;12.61;8.33;;;;;;;;;;348225;150;865000;-63
2021/08/01 04:43:55;;;;;;;11.76;8.49;;;;;;;;;;345215;153;857330;-63
2021/08/01 04:44:57;;;;;;;14.36;9.03;;;;;;;;;;341759;153;858585;-64
2021/08/01 04:45:59;;;;;;;12.75;8.98;;;;;;;;;;346082;153;858355;-62
2021/08/01 04:47:00;;;;;;;15.14;8.64;;;;;;;;;;346646;153;857352;-62
2021/08/01 04:48:02;;;;;;;12.84;9.01;;;;;;;;;;348906;151;865373;-61
2021/08/01 04:49:04;;;;;;;11.33;8.12;;;;;;;;;;347231;151;857346;-60
2021/08/01 04:50:06;;;;;;;11.43;8.66;;;;;;;;;;347776;153;866357;-61
2021/08/01 04:51:08;;;;;;;11.51;9.11;;;;;;;;;;348948;153;860165;-60
2021/08/01 04:52:16;;;;;;;13.38;8.32;;;;;;;;;;347189;151;857868;-62
2021/08/01 04:53:18;;;;;;;16.86;8.91;;;;;;;;;;347830;153;866192;-60
2021/08/01 04:54:19;;;;;;;11.12;8.64;;;;;;;;;;349372;153;859063;-62
2021/08/01 04:55:21;;;;;;;13.18;8.79;;;;;;;;;;348988;150;857251;-62
2021/08/01 04:56:23;;;;;;;11.61;8.43;;;;;;;;;;346473;153;857255;-60
2021/08/01 04:57:24;;;;;;;10.44;8.59;;;;;;;;;;346936;153;857501;-60
2021/08/01 04:58:26;;;;;;;11.41;8.40;;;;;;;;;;347710;151;859060;-61
2021/08/01 04:59:27;;;;;;;12.59;8.39;;;;;;;;;;346556;152;858352;-61
2021/08/01 05:00:30;;;;;;;15.57;8.36;;;;;;;;;;347809;151;858895;-61
2021/08/01 05:01:31;;;;;;;13.19;8.61;;;;;;;;;;347614;151;858887;-63
2021/08/01 05:02:33;;;;;;;18.09;9.61;;;;;;;;;;345901;152;857915;-62
2021/08/01 05:03:35;;;;;;;13.04;8.48;;;;;;;;;;346500;152;864053;-63
2021/08/01 05:04:36;;;;;;;12.86;8.03;;;;;;;;;;349814;153;857552;-62
2021/08/01 05:05:38;;;;;;;16.14;8.44;;;;;;;;;;346727;150;857260;-63
2021/08/01 05:06:41;;;;;;;13.54;8.04;;;;;;;;;;347813;151;857246;-63
2021/08/01 05:07:42;;;;;;;10.04;8.35;;;;;;;;;;348209;153;857257;-60
2021/08/01 05:08:44;;;;;;;12.04;8.05;;;;;;;;;;350182;153;857636;-62
2021/08/01 05:09:46;;;;;;;11.24;7.87;;;;;;;;;;348443;150;858668;-63
2021/08/01 05:10:49;;;;;;;12.79;8.19;;;;;;;;;;336667;156;860409;-61
2021/08/01 05:11:51;;;;;;;11.27;7.74;;;;;;;;;;338460;156;858416;-63
2021/08/01 05:12:52;;;;;;;9.56;7.96;;;;;;;;;;339564;158;857513;-63
2021/08/01 05:13:55;;;;;;;11.94;8.25;;;;;;;;;;347242;152;865449;-63
2021/08/01 05:14:56;;;;;;;12.71;8.13;;;;;;;;;;346981;153;857339;-63
2021/08/01 05:15:58;;;;;;;12.41;7.62;;;;;;;;;;342166;155;859112;-63
2021/08/01 05:16:59;;;;;;;12.17;7.90;;;;;;;;;;347628;151;858359;-63
2021/08/01 05:18:01;;;;;;;10.73;7.95;;;;;;;;;;345626;153;866440;-63
2021/08/01 05:19:03;;;;;;;9.24;7.81;;;;;;;;;;347559;153;859244;-63
2021/08/01 05:20:05;;;;;;;12.66;8.09;;;;;;;;;;348410;153;859144;-64
2021/08/01 05:21:07;;;;;;;12.72;8.51;;;;;;;;;;341054;153;858771;-63
2021/08/01 05:24:32;;;;;;;12.68;9.14;;;;;;;25.40;55.39;99262.02;370812;142;876220;-64
2021/08/01 05:25:34;;;;;;;12.32;8.64;;;;;;;25.35;54.74;99259.75;364212;144;857942;-63
2021/08/01 05:26:36;;;;;;;14.47;8.95;;;;;;;25.33;55.00;99266.12;364162;144;857400;-64
2021/08/01 05:27:38;;;;;;;17.46;9.02;;;;;;;25.33;55.00;99266.12;364703;146;857279;-64
2021/08/01 05:28:40;;;;;;;15.54;8.99;;;;;;;25.26;55.93;99255.20;361575;145;865369;-62
2021/08/01 05:29:41;;;;;;;12.99;8.99;;;;;;;25.25;55.35;99264.11;356642;147;864920;-64
2021/08/01 05:30:44;;;;;;;10.68;8.77;;;;;;;25.28;55.11;99265.66;366996;144;864882;-64
2021/08/01 05:31:46;;;;;;;11.50;8.29;;;;;;;25.32;55.33;99264.45;360941;144;858937;-64
2021/08/01 05:32:48;;;;;;;13.56;9.16;;;;;;;25.36;55.85;99266.73;361109;144;866307;-63
2021/08/01 05:33:50;;;;;;;12.95;8.75;;;;;;;25.42;54.92;99267.20;359230;150;865125;-63
2021/08/01 05:34:51;;;;;;;14.02;8.45;;;;;;;25.47;55.11;99270.35;359837;145;859053;-65
2021/08/01 05:35:53;;;;;;;12.36;9.08;;;;;;;25.52;54.77;99269.02;363776;145;865887;-63
2021/08/01 05:36:55;;;;;;;11.79;8.23;;;;;;;25.58;55.12;99272.14;362802;145;865041;-63
2021/08/01 05:37:57;;;;;;;11.94;8.24;;;;;;;25.63;54.91;99262.00;361616;145;857315;-63
2021/08/01 05:38:59;;;;;;;11.59;8.54;;;;;;;25.67;54.87;99266.91;364179;144;864887;-63
2021/08/01 05:40:00;;;;;;;13.41;9.02;;;;;;;25.72;54.40;99266.55;357076;147;865004;-63
2021/08/01 05:41:02;;;;;;;13.10;8.50;;;;;;;25.77;53.87;99271.45;364400;147;864913;-63
2021/08/01 05:42:04;;;;;;;12.07;8.94;;;;;;;25.81;54.54;99273.73;360878;147;865048;-63
2021/08/01 05:43:08;;;;;;;11.35;8.68;;;;;;;25.86;54.21;99270.69;361311;145;857800;-63
2021/08/01 05:44:10;;;;;;;13.18;8.65;;;;;;;25.90;53.96;99269.47;361643;144;857344;-63
2021/08/01 05:45:11;;;;;;;10.56;8.19;;;;;;;;;;366053;144;865821;-63
2021/08/01 05:46:14;;;;;;;11.63;8.67;;;;;;;;;;362202;146;859746;-64
2021/08/01 05:47:15;;;;;;;11.83;8.71;;;;;;;;;;361230;145;857709;-64
2021/08/01 05:48:17;;;;;;;12.68;8.54;;;;;;;;;;363804;144;859041;-66
2021/08/01 05:49:18;;;;;;;9.63;7.61;;;;;;;;;;365482;144;857529;-64
2021/08/01 05:50:22;;;;;;;12.54;7.94;;;;;;;;;;360198;144;857333;-63
2021/08/01 05:51:23;;;;;;;15.65;8.41;;;;;;;;;;360604;144;857272;-62
2021/08/01 05:52:25;;;;;;;12.79;8.45;;;;;;;;;;364864;147;858713;-63
2021/08/01 05:53:27;;;;;;;15.69;7.73;;;;;;;;;;361213;144;857886;-63
2021/08/01 05:54:28;;;;;;;14.12;8.31;;;;;;;;;;363524;144;857410;-64
2021/08/01 05:55:30;;;;;;;11.17;7.94;;;;;;;27.68;0.00;59282.32;361530;147;857396;-62
2021/08/01 05:56:33;;;;;;;15.60;8.36;;;;;;;;;;364033;144;857488;-62
2021/08/01 05:57:34;;;;;;;11.98;7.84;;;;;;;;;;363002;144;857513;-61
2021/08/01 05:58:36;;;;;;;10.70;8.22;;;;;;;;;;362557;144;858027;-63
2021/08/01 05:59:38;;;;;;;10.84;8.04;;;;;;;;;;362817;144;857296;-59
2021/08/01 06:00:40;;;;;;;14.52;7.99;;;;;;;;;;362158;144;857319;-62
2021/08/01 06:01:42;;;;;;;11.59;7.77;;;;;;;;;;362171;145;857369;-66